Time,TemperatureF,DewpointF,PressureIn,WindDirection,WindDirectionDegrees,WindSpeedMPH,WindSpeedGustMPH,Humidity,HourlyPrecipIn,Conditions,Clouds,dailyrainin,SoftwareType,DateUTC
2013-03-28 00:00:00,42.5,34.5,30.17,North,-999,0.0,0.0,73,0.00,,,-99.99,WeatherLink 5.7,2013-03-28 04:00:00,
2013-03-28 00:15:00,42.3,33.9,30.16,North,-999,0.0,0.0,72,0.00,,,-99.99,WeatherLink 5.7,2013-03-28 04:15:00,
2013-03-28 00:30:00,42.1,34.1,30.17,North,-999,0.0,0.0,73,0.00,,,-99.99,WeatherLink 5.7,2013-03-28 04:30:00,
2013-03-28 00:45:00,41.7,34.4,30.16,North,-999,0.0,0.0,75,0.00,,,-99.99,WeatherLink 5.7,2013-03-28 04:45:00,
2013-03-28 01:00:00,41.6,33.9,30.16,North,-999,0.0,0.0,74,0.00,,,-99.99,WeatherLink 5.7,2013-03-28 05:00:00,
2013-03-28 01:15:00,41.6,34.6,30.16,North,-999,0.0,0.0,76,0.00,,,-99.99,WeatherLink 5.7,2013-03-28 05:15:00,
2013-03-28 01:30:00,41.8,34.8,30.16,North,-999,0.0,0.0,76,0.00,,,-99.99,WeatherLink 5.7,2013-03-28 05:30:00,
2013-03-28 01:45:00,41.7,34.7,30.15,North,-999,0.0,0.0,76,0.00,,,-99.99,WeatherLink 5.7,2013-03-28 05:45:00,
2013-03-28 02:00:00,41.4,34.7,30.15,North,-999,0.0,0.0,77,0.00,,,-99.99,WeatherLink 5.7,2013-03-28 06:00:00,
2013-03-28 02:15:00,41.3,35.0,30.15,North,-999,0.0,0.0,78,0.00,,,-99.99,WeatherLink 5.7,2013-03-28 06:15:00,
2013-03-28 02:30:00,41.2,34.5,30.15,North,-999,0.0,0.0,77,0.00,,,-99.99,WeatherLink 5.7,2013-03-28 06:30:00,
2013-03-28 02:45:00,41.1,34.8,30.15,North,-999,0.0,0.0,78,0.00,,,-99.99,WeatherLink 5.7,2013-03-28 06:45:00,
2013-03-28 03:00:00,40.8,34.5,30.14,North,-999,0.0,0.0,78,0.00,,,-99.99,WeatherLink 5.7,2013-03-28 07:00:00,
2013-03-28 03:15:00,40.6,34.3,30.14,North,-999,0.0,0.0,78,0.00,,,-99.99,WeatherLink 5.7,2013-03-28 07:15:00,
2013-03-28 03:30:00,40.4,34.4,30.14,North,-999,0.0,0.0,79,0.00,,,-99.99,WeatherLink 5.7,2013-03-28 07:30:00,
2013-03-28 03:45:00,40.2,34.2,30.14,North,-999,0.0,0.0,79,0.00,,,-99.99,WeatherLink 5.7,2013-03-28 07:45:00,
2013-03-28 04:00:00,40.2,34.2,30.14,North,-999,0.0,0.0,79,0.00,,,-99.99,WeatherLink 5.7,2013-03-28 08:00:00,
2013-03-28 04:15:00,40.2,34.5,30.13,North,-999,0.0,0.0,80,0.00,,,-99.99,WeatherLink 5.7,2013-03-28 08:15:00,
2013-03-28 04:30:00,40.6,35.5,30.14,North,-999,0.0,0.0,82,0.00,,,-99.99,WeatherLink 5.7,2013-03-28 08:30:00,
2013-03-28 04:45:00,41.2,36.1,30.14,North,-999,0.0,0.0,82,0.00,,,-99.99,WeatherLink 5.7,2013-03-28 08:45:00,
2013-03-28 05:00:00,41.9,36.8,30.14,North,-999,0.0,0.0,82,0.00,,,-99.99,WeatherLink 5.7,2013-03-28 09:00:00,
2013-03-28 05:15:00,42.1,37.0,30.15,North,-999,0.0,0.0,82,0.00,,,-99.99,WeatherLink 5.7,2013-03-28 09:15:00,
2013-03-28 05:30:00,42.3,37.5,30.14,North,-999,0.0,0.0,83,0.00,,,-99.99,WeatherLink 5.7,2013-03-28 09:30:00,
2013-03-28 05:45:00,42.6,37.8,30.15,North,-999,0.0,0.0,83,0.00,,,-99.99,WeatherLink 5.7,2013-03-28 09:45:00,
2013-03-28 06:00:00,42.6,37.5,30.15,North,-999,0.0,0.0,82,0.00,,,-99.99,WeatherLink 5.7,2013-03-28 10:00:00,
2013-03-28 06:15:00,42.6,37.5,30.15,North,-999,0.0,0.0,82,0.00,,,-99.99,WeatherLink 5.7,2013-03-28 10:15:00,
2013-03-28 06:30:00,42.3,37.2,30.15,North,-999,0.0,0.0,82,0.00,,,-99.99,WeatherLink 5.7,2013-03-28 10:30:00,
2013-03-28 06:45:00,42.0,36.9,30.15,North,-999,0.0,0.0,82,0.00,,,-99.99,WeatherLink 5.7,2013-03-28 10:45:00,
2013-03-28 07:00:00,41.6,36.5,30.16,North,-999,0.0,0.0,82,0.00,,,-99.99,WeatherLink 5.7,2013-03-28 11:00:00,
2013-03-28 07:15:00,41.2,36.1,30.16,North,-999,0.0,0.0,82,0.00,,,-99.99,WeatherLink 5.7,2013-03-28 11:15:00,
2013-03-28 07:30:00,41.0,35.6,30.16,North,-999,0.0,0.0,81,0.00,,,-99.99,WeatherLink 5.7,2013-03-28 11:30:00,
2013-03-28 07:45:00,40.8,35.7,30.17,North,-999,0.0,0.0,82,0.00,,,-99.99,WeatherLink 5.7,2013-03-28 11:45:00,
2013-03-28 08:00:00,41.0,35.9,30.18,North,-999,0.0,0.0,82,0.00,,,-99.99,WeatherLink 5.7,2013-03-28 12:00:00,
2013-03-28 08:15:00,41.6,36.2,30.18,North,-999,0.0,0.0,81,0.00,,,-99.99,WeatherLink 5.7,2013-03-28 12:15:00,
2013-03-28 08:30:00,43.0,36.9,30.18,North,-999,0.0,0.0,79,0.00,,,-99.99,WeatherLink 5.7,2013-03-28 12:30:00,
2013-03-28 08:45:00,44.7,37.6,30.19,North,0,0.0,4.0,76,0.00,,,-99.99,WeatherLink 5.7,2013-03-28 12:45:00,
2013-03-28 09:00:00,46.7,38.1,30.19,North,0,0.0,5.0,72,0.00,,,-99.99,WeatherLink 5.7,2013-03-28 13:00:00,
2013-03-28 09:15:00,49.5,40.1,30.19,North,0,0.0,6.0,70,0.00,,,-99.99,WeatherLink 5.7,2013-03-28 13:15:00,
2013-03-28 09:30:00,52.3,40.5,30.20,North,0,0.0,1.0,64,0.00,,,-99.99,WeatherLink 5.7,2013-03-28 13:30:00,
2013-03-28 09:45:00,54.6,40.6,30.20,North,0,1.0,9.0,59,0.00,,,-99.99,WeatherLink 5.7,2013-03-28 13:45:00,
2013-03-28 10:00:00,56.4,40.0,30.20,North,0,3.0,9.0,54,0.00,,,-99.99,WeatherLink 5.7,2013-03-28 14:00:00,
2013-03-28 10:15:00,57.6,39.6,30.20,North,0,1.0,10.0,51,0.00,,,-99.99,WeatherLink 5.7,2013-03-28 14:15:00,
2013-03-28 10:30:00,59.0,39.3,30.20,North,0,1.0,11.0,48,0.00,,,-99.99,WeatherLink 5.7,2013-03-28 14:30:00,
2013-03-28 10:45:00,60.5,39.0,30.20,North,0,1.0,7.0,45,0.00,,,-99.99,WeatherLink 5.7,2013-03-28 14:45:00,
2013-03-28 11:00:00,61.5,38.2,30.20,North,0,1.0,12.0,42,0.00,,,-99.99,WeatherLink 5.7,2013-03-28 15:00:00,
2013-03-28 11:15:00,62.7,37.4,30.20,North,0,2.0,9.0,39,0.00,,,-99.99,WeatherLink 5.7,2013-03-28 15:15:00,
2013-03-28 11:30:00,63.5,36.7,30.19,North,0,1.0,7.0,37,0.00,,,-99.99,WeatherLink 5.7,2013-03-28 15:30:00,
2013-03-28 11:45:00,64.3,36.8,30.19,North,0,1.0,9.0,36,0.00,,,-99.99,WeatherLink 5.7,2013-03-28 15:45:00,
2013-03-28 12:00:00,65.2,36.1,30.19,North,0,1.0,10.0,34,0.00,,,-99.99,WeatherLink 5.7,2013-03-28 16:00:00,
2013-03-28 12:15:00,65.9,35.2,30.19,North,0,1.0,10.0,32,0.00,,,-99.99,WeatherLink 5.7,2013-03-28 16:15:00,
2013-03-28 12:30:00,66.2,36.2,30.19,North,0,2.0,11.0,33,0.00,,,-99.99,WeatherLink 5.7,2013-03-28 16:30:00,
2013-03-28 12:45:00,65.9,36.7,30.18,North,0,3.0,11.0,34,0.00,,,-99.99,WeatherLink 5.7,2013-03-28 16:45:00,
2013-03-28 13:00:00,65.1,36.8,30.18,North,0,4.0,13.0,35,0.00,,,-99.99,WeatherLink 5.7,2013-03-28 17:00:00,
2013-03-28 13:15:00,64.6,36.3,30.18,North,0,3.0,12.0,35,0.00,,,-99.99,WeatherLink 5.7,2013-03-28 17:15:00,
2013-03-28 13:30:00,64.5,36.2,30.17,North,0,3.0,13.0,35,0.00,,,-99.99,WeatherLink 5.7,2013-03-28 17:30:00,
2013-03-28 13:45:00,64.6,36.3,30.17,North,0,3.0,13.0,35,0.00,,,-99.99,WeatherLink 5.7,2013-03-28 17:45:00,
2013-03-28 14:00:00,64.5,34.7,30.16,North,0,3.0,10.0,33,0.00,,,-99.99,WeatherLink 5.7,2013-03-28 18:00:00,
2013-03-28 14:15:00,64.3,35.3,30.16,North,0,4.0,13.0,34,0.00,,,-99.99,WeatherLink 5.7,2013-03-28 18:15:00,
2013-03-28 14:30:00,64.3,35.3,30.15,North,0,4.0,13.0,34,0.00,,,-99.99,WeatherLink 5.7,2013-03-28 18:30:00,
2013-03-28 14:45:00,64.1,35.1,30.15,North,0,4.0,14.0,34,0.00,,,-99.99,WeatherLink 5.7,2013-03-28 18:45:00,
2013-03-28 15:00:00,63.8,34.9,30.14,North,0,3.0,13.0,34,0.00,,,-99.99,WeatherLink 5.7,2013-03-28 19:00:00,
2013-03-28 15:15:00,63.4,34.5,30.13,North,0,4.0,12.0,34,0.00,,,-99.99,WeatherLink 5.7,2013-03-28 19:15:00,
2013-03-28 15:30:00,63.6,33.9,30.13,North,0,1.0,9.0,33,0.00,,,-99.99,WeatherLink 5.7,2013-03-28 19:30:00,
2013-03-28 15:45:00,63.8,33.4,30.13,North,0,3.0,10.0,32,0.00,,,-99.99,WeatherLink 5.7,2013-03-28 19:45:00,
2013-03-28 16:00:00,63.7,33.3,30.13,North,0,2.0,12.0,32,0.00,,,-99.99,WeatherLink 5.7,2013-03-28 20:00:00,
2013-03-28 16:15:00,63.5,32.3,30.12,North,0,3.0,12.0,31,0.00,,,-99.99,WeatherLink 5.7,2013-03-28 20:15:00,
2013-03-28 16:30:00,63.7,32.5,30.12,North,0,2.0,12.0,31,0.00,,,-99.99,WeatherLink 5.7,2013-03-28 20:30:00,
2013-03-28 16:45:00,64.1,31.2,30.11,North,0,1.0,13.0,29,0.00,,,-99.99,WeatherLink 5.7,2013-03-28 20:45:00,
2013-03-28 17:00:00,64.3,32.2,30.11,North,0,2.0,12.0,30,0.00,,,-99.99,WeatherLink 5.7,2013-03-28 21:00:00,
2013-03-28 17:15:00,64.5,31.5,30.12,North,0,1.0,10.0,29,0.00,,,-99.99,WeatherLink 5.7,2013-03-28 21:15:00,
2013-03-28 17:30:00,64.6,33.3,30.12,North,0,1.0,13.0,31,0.00,,,-99.99,WeatherLink 5.7,2013-03-28 21:30:00,
2013-03-28 17:45:00,64.2,33.7,30.12,North,0,2.0,11.0,32,0.00,,,-99.99,WeatherLink 5.7,2013-03-28 21:45:00,
2013-03-28 18:00:00,63.1,33.5,30.13,North,0,1.0,10.0,33,0.00,,,-99.99,WeatherLink 5.7,2013-03-28 22:00:00,
2013-03-28 18:15:00,62.1,33.4,30.13,North,0,1.0,11.0,34,0.00,,,-99.99,WeatherLink 5.7,2013-03-28 22:15:00,
2013-03-28 18:30:00,61.3,33.4,30.13,North,0,1.0,10.0,35,0.00,,,-99.99,WeatherLink 5.7,2013-03-28 22:30:00,
2013-03-28 18:45:00,60.7,33.6,30.14,North,0,2.0,10.0,36,0.00,,,-99.99,WeatherLink 5.7,2013-03-28 22:45:00,
2013-03-28 19:00:00,60.3,33.9,30.14,North,0,1.0,9.0,37,0.00,,,-99.99,WeatherLink 5.7,2013-03-28 23:00:00,
2013-03-28 19:15:00,59.9,34.9,30.15,North,0,0.0,2.0,39,0.00,,,-99.99,WeatherLink 5.7,2013-03-28 23:15:00,
2013-03-28 19:30:00,59.4,35.1,30.15,North,0,0.0,6.0,40,0.00,,,-99.99,WeatherLink 5.7,2013-03-28 23:30:00,
2013-03-28 19:45:00,58.8,36.3,30.15,North,-999,0.0,0.0,43,0.00,,,-99.99,WeatherLink 5.7,2013-03-28 23:45:00,
2013-03-28 20:00:00,58.2,35.8,30.15,North,-999,0.0,0.0,43,0.00,,,-99.99,WeatherLink 5.7,2013-03-29 00:00:00,
2013-03-28 20:15:00,57.5,35.7,30.15,North,-999,0.0,0.0,44,0.00,,,-99.99,WeatherLink 5.7,2013-03-29 00:15:00,
2013-03-28 20:30:00,57.0,37.0,30.15,North,-999,0.0,0.0,47,0.00,,,-99.99,WeatherLink 5.7,2013-03-29 00:30:00,
2013-03-28 20:45:00,56.6,37.6,30.16,North,-999,0.0,0.0,49,0.00,,,-99.99,WeatherLink 5.7,2013-03-29 00:45:00,
2013-03-28 21:00:00,56.1,37.7,30.16,North,-999,0.0,0.0,50,0.00,,,-99.99,WeatherLink 5.7,2013-03-29 01:00:00,
2013-03-28 21:15:00,55.5,37.7,30.16,North,-999,0.0,0.0,51,0.00,,,-99.99,WeatherLink 5.7,2013-03-29 01:15:00,
2013-03-28 21:30:00,54.8,38.0,30.16,North,-999,0.0,0.0,53,0.00,,,-99.99,WeatherLink 5.7,2013-03-29 01:30:00,
2013-03-28 21:45:00,54.1,37.3,30.16,North,-999,0.0,0.0,53,0.00,,,-99.99,WeatherLink 5.7,2013-03-29 01:45:00,
2013-03-28 22:00:00,53.4,37.6,30.17,North,-999,0.0,0.0,55,0.00,,,-99.99,WeatherLink 5.7,2013-03-29 02:00:00,
2013-03-28 22:15:00,52.6,37.3,30.17,North,-999,0.0,0.0,56,0.00,,,-99.99,WeatherLink 5.7,2013-03-29 02:15:00,
2013-03-28 22:30:00,51.9,37.6,30.17,North,-999,0.0,0.0,58,0.00,,,-99.99,WeatherLink 5.7,2013-03-29 02:30:00,
2013-03-28 22:45:00,51.3,37.4,30.17,North,-999,0.0,0.0,59,0.00,,,-99.99,WeatherLink 5.7,2013-03-29 02:45:00,
2013-03-28 23:00:00,50.7,37.3,30.18,North,-999,0.0,0.0,60,0.00,,,-99.99,WeatherLink 5.7,2013-03-29 03:00:00,
2013-03-28 23:15:00,50.2,37.3,30.18,North,-999,0.0,0.0,61,0.00,,,-99.99,WeatherLink 5.7,2013-03-29 03:15:00,
2013-03-28 23:30:00,49.8,38.1,30.18,North,-999,0.0,0.0,64,0.00,,,-99.99,WeatherLink 5.7,2013-03-29 03:30:00,
2013-03-28 23:45:00,49.6,37.5,30.18,North,-999,0.0,0.0,63,0.00,,,-99.99,WeatherLink 5.7,2013-03-29 03:45:00,